Time;durP1;ratioP1;P1;durP2;ratioP2;P2;SDS_P1;SDS_P2;PMS_P1;PMS_P2;Temp;Humidity;BMP_temperature;BMP_pressure;BME280_temperature;BME280_humidity;BME280_pressure;Samples;Min_cycle;Max_cycle;Signal;HPM_P1;HPM_P2
2022/12/02 00:01:10;;;;;;;8.37;5.23;;;2.60;99.90;;;;;;5010091;28;20477;-60
2022/12/02 00:03:36;;;;;;;11.57;6.20;;;2.60;99.90;;;;;;5033421;28;20457;-60
2022/12/02 00:06:03;;;;;;;10.70;4.90;;;2.70;99.90;;;;;;5024000;28;20476;-60
2022/12/02 00:08:31;;;;;;;11.67;6.07;;;2.60;99.90;;;;;;5029789;28;20183;-60
2022/12/02 00:11:00;;;;;;;9.60;5.40;;;2.70;99.90;;;;;;5029482;28;20450;-60
2022/12/02 00:13:38;;;;;;;11.13;5.67;;;2.70;99.90;;;;;;5027448;28;20437;-59
2022/12/02 00:16:04;;;;;;;12.50;6.10;;;2.70;99.90;;;;;;5023586;28;20436;-60
2022/12/02 00:18:30;;;;;;;14.80;7.30;;;2.70;99.90;;;;;;5029318;28;20434;-61
2022/12/02 00:20:56;;;;;;;11.40;5.87;;;2.70;99.90;;;;;;5011388;28;20890;-60
2022/12/02 00:23:22;;;;;;;10.37;5.90;;;2.70;99.90;;;;;;5011826;28;20534;-60
2022/12/02 00:25:50;;;;;;;9.00;6.20;;;2.70;99.90;;;;;;5028009;28;20435;-60
2022/12/02 00:28:16;;;;;;;12.57;6.90;;;2.70;99.90;;;;;;5030001;28;20453;-60
2022/12/02 00:30:42;;;;;;;13.83;6.90;;;2.70;99.90;;;;;;5021478;28;20469;-60
2022/12/02 00:33:08;;;;;;;11.00;5.77;;;2.70;99.90;;;;;;5027772;28;20180;-60
2022/12/02 00:35:34;;;;;;;15.90;7.13;;;2.70;99.90;;;;;;5010597;28;20438;-60
2022/12/02 00:38:00;;;;;;;12.93;5.07;;;2.60;99.90;;;;;;5018111;28;20431;-60
2022/12/02 00:40:25;;;;;;;9.23;5.60;;;2.60;99.90;;;;;;5025826;28;20519;-60
2022/12/02 00:42:51;;;;;;;11.73;6.37;;;2.60;99.90;;;;;;5026251;28;20197;-60
2022/12/02 00:48:01;;;;;;;11.40;6.07;;;2.60;99.90;;;;;;5027526;28;20229;-60
2022/12/02 00:50:27;;;;;;;11.87;6.63;;;2.60;99.90;;;;;;5011658;28;20454;-60
2022/12/02 00:52:53;;;;;;;11.87;6.77;;;2.60;99.90;;;;;;5007838;28;20195;-60
2022/12/02 00:55:19;;;;;;;10.30;6.10;;;2.60;99.90;;;;;;5028587;28;20425;-60
2022/12/02 00:57:44;;;;;;;11.37;6.53;;;2.60;99.90;;;;;;5022786;28;20917;-60
2022/12/02 01:00:11;;;;;;;14.10;7.27;;;2.60;99.90;;;;;;5029663;28;20434;-60
2022/12/02 01:02:36;;;;;;;11.20;6.27;;;2.60;99.90;;;;;;5023108;28;20531;-60
2022/12/02 01:05:03;;;;;;;13.47;6.90;;;2.60;99.90;;;;;;5020578;28;20430;-60
2022/12/02 01:07:28;;;;;;;11.90;6.67;;;2.60;99.90;;;;;;5030059;28;20179;-60
2022/12/02 01:09:54;;;;;;;9.87;6.03;;;2.60;99.90;;;;;;5031328;28;20463;-60
2022/12/02 01:12:19;;;;;;;13.10;6.20;;;2.60;99.90;;;;;;5033932;28;20232;-60
2022/12/02 01:14:45;;;;;;;16.10;9.13;;;2.60;99.90;;;;;;5031706;28;20710;-60
2022/12/02 01:17:11;;;;;;;18.43;8.80;;;2.60;99.90;;;;;;5029803;28;20197;-60
2022/12/02 01:19:36;;;;;;;18.10;7.07;;;2.50;99.90;;;;;;5008464;28;20191;-60
2022/12/02 01:22:02;;;;;;;19.70;8.33;;;2.60;99.90;;;;;;5030304;28;20636;-60
2022/12/02 01:24:27;;;;;;;18.07;8.00;;;2.60;99.90;;;;;;5030189;28;20199;-60
2022/12/02 01:26:53;;;;;;;26.57;10.27;;;2.60;99.90;;;;;;5033153;28;20699;-60
2022/12/02 01:29:19;;;;;;;18.33;7.57;;;2.50;99.90;;;;;;5033962;28;21059;-60
2022/12/02 01:31:44;;;;;;;14.87;7.13;;;2.50;99.90;;;;;;5027426;28;20655;-59
2022/12/02 01:34:10;;;;;;;17.17;8.10;;;2.50;99.90;;;;;;5032793;28;20164;-60
2022/12/02 01:36:35;;;;;;;13.70;7.60;;;2.50;99.90;;;;;;5031304;28;20217;-60
2022/12/02 01:39:01;;;;;;;12.50;6.83;;;2.60;99.90;;;;;;5025684;28;20223;-61
2022/12/02 01:41:26;;;;;;;17.23;8.73;;;2.60;99.90;;;;;;5026941;28;20226;-60
2022/12/02 01:43:52;;;;;;;13.83;7.53;;;2.60;99.90;;;;;;5033079;28;20760;-60
2022/12/02 01:46:18;;;;;;;15.07;7.90;;;2.60;99.90;;;;;;5024858;28;20832;-60
2022/12/02 01:48:44;;;;;;;13.47;6.70;;;2.60;99.90;;;;;;5029817;28;20406;-60
2022/12/02 01:51:10;;;;;;;16.03;8.20;;;2.60;99.90;;;;;;5013179;28;20219;-60
2022/12/02 01:53:36;;;;;;;15.03;7.87;;;2.70;99.90;;;;;;5028004;28;20435;-60
2022/12/02 01:56:02;;;;;;;13.20;6.97;;;2.70;99.90;;;;;;5030987;28;20176;-60
2022/12/02 01:58:30;;;;;;;12.77;7.23;;;2.70;99.90;;;;;;5023853;28;20450;-61
2022/12/02 02:00:56;;;;;;;12.50;6.80;;;2.70;99.90;;;;;;5028736;28;20517;-60
2022/12/02 02:03:23;;;;;;;15.10;7.03;;;2.70;99.90;;;;;;5031528;28;20442;-60
2022/12/02 02:05:50;;;;;;;13.70;7.90;;;2.70;99.90;;;;;;5029904;28;20506;-60
2022/12/02 02:08:16;;;;;;;17.63;7.93;;;2.70;99.90;;;;;;5027142;28;20431;-61
2022/12/02 02:10:43;;;;;;;14.10;7.00;;;2.70;99.90;;;;;;5012318;28;20462;-60
2022/12/02 02:13:13;;;;;;;17.53;8.70;;;2.70;99.90;;;;;;5031559;28;20418;-60
2022/12/02 02:15:40;;;;;;;12.10;7.70;;;2.70;99.90;;;;;;5027659;28;20428;-60
2022/12/02 02:18:06;;;;;;;14.80;7.60;;;2.70;99.90;;;;;;5030381;28;20455;-60
2022/12/02 02:20:33;;;;;;;25.97;10.73;;;2.70;99.90;;;;;;5030757;28;20434;-60
2022/12/02 02:23:05;;;;;;;24.00;9.40;;;2.70;99.90;;;;;;5027502;28;20434;-60
2022/12/02 02:25:38;;;;;;;17.43;8.50;;;2.70;99.90;;;;;;5028943;28;20433;-60
2022/12/02 02:28:04;;;;;;;21.60;10.10;;;2.70;99.90;;;;;;5029274;28;20527;-60
2022/12/02 02:30:34;;;;;;;12.80;7.57;;;2.70;99.90;;;;;;5021879;28;20497;-60
2022/12/02 02:33:06;;;;;;;15.43;7.90;;;2.70;99.90;;;;;;5028151;28;21028;-60
2022/12/02 02:35:37;;;;;;;17.30;8.70;;;2.70;99.90;;;;;;5026884;28;20945;-60
2022/12/02 02:38:06;;;;;;;14.50;7.80;;;2.60;99.90;;;;;;5023261;28;20455;-60
2022/12/02 02:40:32;;;;;;;14.80;8.03;;;2.70;99.90;;;;;;5028265;28;20454;-60
2022/12/02 02:43:00;;;;;;;14.83;8.30;;;2.60;99.90;;;;;;5029351;28;20572;-60
2022/12/02 02:45:28;;;;;;;14.80;8.40;;;2.60;99.90;;;;;;5020876;28;22357;-60
2022/12/02 02:47:54;;;;;;;15.20;8.37;;;2.60;99.90;;;;;;5010335;28;20423;-61
2022/12/02 02:50:21;;;;;;;16.93;8.60;;;2.60;99.90;;;;;;5032452;28;20476;-60
2022/12/02 02:52:48;;;;;;;13.47;8.00;;;2.60;99.90;;;;;;5031647;28;20469;-60
2022/12/02 02:55:19;;;;;;;13.67;7.83;;;2.60;99.90;;;;;;5012969;28;20551;-60
2022/12/02 02:57:44;;;;;;;15.67;8.53;;;2.60;99.90;;;;;;5029419;28;20429;-60
2022/12/02 03:00:11;;;;;;;13.37;7.80;;;2.60;99.90;;;;;;5013032;28;20462;-60
2022/12/02 03:02:38;;;;;;;10.77;7.33;;;2.60;99.90;;;;;;5029398;28;20196;-60
2022/12/02 03:05:05;;;;;;;15.13;7.90;;;2.60;99.90;;;;;;5028238;28;20430;-60
2022/12/02 03:07:31;;;;;;;15.03;7.97;;;2.60;99.90;;;;;;5029725;28;20433;-60
2022/12/02 03:09:57;;;;;;;15.87;7.80;;;2.60;99.90;;;;;;5026006;28;20984;-60
2022/12/02 03:12:23;;;;;;;13.07;7.63;;;2.60;99.90;;;;;;5027224;28;20434;-60
2022/12/02 03:14:49;;;;;;;14.80;8.20;;;2.60;99.90;;;;;;5033041;28;20416;-60
2022/12/02 03:17:15;;;;;;;17.90;8.07;;;2.60;99.90;;;;;;5030327;28;20175;-60
2022/12/02 03:19:42;;;;;;;15.67;7.87;;;2.60;99.90;;;;;;5011484;28;20195;-60
2022/12/02 03:22:09;;;;;;;18.40;8.60;;;2.60;99.90;;;;;;5029704;28;20517;-60
2022/12/02 03:24:36;;;;;;;14.83;8.03;;;2.60;99.90;;;;;;5028443;28;20445;-60
2022/12/02 03:27:03;;;;;;;15.43;7.80;;;2.70;99.90;;;;;;5026930;28;20470;-60
2022/12/02 03:29:29;;;;;;;16.00;8.47;;;2.60;99.90;;;;;;5030488;28;20465;-60
2022/12/02 03:31:57;;;;;;;17.37;9.50;;;2.70;99.90;;;;;;5027789;28;20512;-60
2022/12/02 03:34:23;;;;;;;14.00;8.20;;;2.60;99.90;;;;;;5011301;28;20511;-59
2022/12/02 03:36:48;;;;;;;16.67;8.47;;;2.60;99.90;;;;;;5024423;28;20429;-58
2022/12/02 03:39:14;;;;;;;16.70;8.43;;;2.60;99.90;;;;;;5026476;28;20454;-58
2022/12/02 03:41:40;;;;;;;15.77;8.43;;;2.70;99.90;;;;;;5027762;28;20279;-59
2022/12/02 03:44:06;;;;;;;15.63;7.23;;;2.70;99.90;;;;;;5010627;28;20266;-59
2022/12/02 03:46:32;;;;;;;19.27;8.40;;;2.60;99.90;;;;;;5021376;28;20266;-58
2022/12/02 03:49:00;;;;;;;15.03;8.33;;;2.60;99.90;;;;;;5023534;28;20184;-58
2022/12/02 03:51:26;;;;;;;15.40;7.80;;;2.60;99.90;;;;;;5030765;28;20970;-58
2022/12/02 03:53:52;;;;;;;13.77;7.53;;;2.60;99.90;;;;;;5024293;28;20920;-58
2022/12/02 03:56:18;;;;;;;17.97;9.93;;;2.60;99.90;;;;;;5029287;28;20864;-59
2022/12/02 03:58:47;;;;;;;22.10;10.87;;;2.60;99.90;;;;;;5027953;28;20462;-58
2022/12/02 04:01:13;;;;;;;19.10;9.53;;;2.60;99.90;;;;;;5025256;28;20202;-58
2022/12/02 04:03:39;;;;;;;12.13;6.80;;;2.60;99.90;;;;;;5023167;28;20464;-59
2022/12/02 04:06:04;;;;;;;11.23;7.03;;;2.60;99.90;;;;;;5025042;28;20446;-59
2022/12/02 04:08:30;;;;;;;13.87;7.70;;;2.60;99.90;;;;;;5016924;28;20182;-58
2022/12/02 04:10:55;;;;;;;14.77;7.43;;;2.60;99.90;;;;;;5028934;28;20281;-58
2022/12/02 04:13:21;;;;;;;15.20;8.27;;;2.70;99.90;;;;;;5029555;28;20179;-58
2022/12/02 04:15:47;;;;;;;15.00;7.37;;;2.60;99.90;;;;;;5029482;28;20712;-58
2022/12/02 04:18:13;;;;;;;15.57;8.80;;;2.70;99.90;;;;;;5028587;28;20258;-58
2022/12/02 04:20:38;;;;;;;17.90;8.63;;;2.70;99.90;;;;;;5012194;28;20544;-58
2022/12/02 04:23:04;;;;;;;14.40;7.57;;;2.60;99.90;;;;;;5020739;28;20522;-58
2022/12/02 04:25:30;;;;;;;15.33;8.37;;;2.70;99.90;;;;;;5027315;28;20183;-58
2022/12/02 04:27:55;;;;;;;13.30;7.63;;;2.60;99.90;;;;;;5027652;28;20184;-59
2022/12/02 04:30:21;;;;;;;15.90;8.50;;;2.60;99.90;;;;;;5028223;28;20731;-59
2022/12/02 04:32:46;;;;;;;15.43;8.10;;;2.60;99.90;;;;;;5008798;28;20625;-58
2022/12/02 04:35:12;;;;;;;15.57;8.67;;;2.60;99.90;;;;;;5027863;28;20179;-58
2022/12/02 04:37:38;;;;;;;17.60;8.07;;;2.60;99.90;;;;;;5026835;28;20552;-58
2022/12/02 04:40:05;;;;;;;13.67;7.93;;;2.60;99.90;;;;;;5025324;28;20847;-58
2022/12/02 04:42:30;;;;;;;17.33;8.87;;;2.70;99.90;;;;;;5029012;28;20187;-58
2022/12/02 04:44:56;;;;;;;15.47;8.80;;;2.70;99.90;;;;;;5014848;28;20432;-58
2022/12/02 04:47:22;;;;;;;16.47;8.50;;;2.60;99.90;;;;;;5029537;28;20218;-58
2022/12/02 04:49:48;;;;;;;16.33;7.93;;;2.60;99.90;;;;;;5009643;28;20485;-58
2022/12/02 04:52:14;;;;;;;21.80;10.63;;;2.70;99.90;;;;;;5028957;28;20236;-59
2022/12/02 04:54:40;;;;;;;16.43;10.00;;;2.70;99.90;;;;;;5003119;28;20201;-58
2022/12/02 04:57:06;;;;;;;16.80;9.77;;;2.70;99.90;;;;;;5030991;28;20430;-58
2022/12/02 04:59:32;;;;;;;17.07;8.63;;;2.70;99.90;;;;;;5018548;28;20226;-59
2022/12/02 05:01:58;;;;;;;15.20;8.50;;;2.70;99.90;;;;;;5023481;28;20444;-57
2022/12/02 05:04:23;;;;;;;14.23;8.30;;;2.70;99.90;;;;;;5029917;28;20258;-59
2022/12/02 05:06:49;;;;;;;14.23;8.63;;;2.70;99.90;;;;;;5031078;28;20243;-57
2022/12/02 05:09:14;;;;;;;14.03;8.30;;;2.70;99.90;;;;;;5023926;28;20198;-59
2022/12/02 05:11:40;;;;;;;16.10;8.03;;;2.70;99.90;;;;;;5024984;28;20274;-58
2022/12/02 05:14:06;;;;;;;13.57;8.10;;;2.80;99.90;;;;;;5008849;28;20195;-59
2022/12/02 05:16:32;;;;;;;14.50;8.33;;;2.80;99.90;;;;;;5028713;28;20246;-58
2022/12/02 05:18:57;;;;;;;15.30;7.63;;;2.80;99.90;;;;;;5025046;28;20297;-58
2022/12/02 05:21:23;;;;;;;12.20;7.27;;;2.80;99.90;;;;;;5003666;28;20942;-59
2022/12/02 05:23:48;;;;;;;10.60;7.40;;;2.80;99.90;;;;;;5029113;28;20230;-59
2022/12/02 05:26:14;;;;;;;16.20;7.97;;;2.80;99.90;;;;;;5022342;28;20183;-58
2022/12/02 05:28:40;;;;;;;11.17;6.83;;;2.80;99.90;;;;;;5031766;28;20229;-59
2022/12/02 05:31:05;;;;;;;14.40;8.73;;;2.80;99.90;;;;;;5029637;28;20778;-59
2022/12/02 05:33:31;;;;;;;16.70;8.13;;;2.80;99.90;;;;;;5024119;28;20172;-59
2022/12/02 05:35:56;;;;;;;10.63;6.80;;;2.80;99.90;;;;;;5028070;28;20226;-59
2022/12/02 05:38:22;;;;;;;12.40;7.10;;;2.80;99.90;;;;;;5010949;28;20210;-58
2022/12/02 05:40:47;;;;;;;14.97;7.53;;;2.70;99.90;;;;;;5005396;28;20686;-59
2022/12/02 05:43:17;;;;;;;13.23;7.47;;;2.70;99.90;;;;;;5021810;28;20192;-60
2022/12/02 05:45:43;;;;;;;11.57;7.50;;;2.70;99.90;;;;;;5028806;28;20184;-57
2022/12/02 05:48:11;;;;;;;12.77;7.97;;;2.70;99.90;;;;;;5025970;28;20807;-58
2022/12/02 05:50:36;;;;;;;11.90;7.43;;;2.70;99.90;;;;;;5024203;28;20562;-59
2022/12/02 05:53:03;;;;;;;14.13;7.70;;;2.70;99.90;;;;;;5029228;28;20521;-59
2022/12/02 05:55:30;;;;;;;14.07;7.60;;;2.70;99.90;;;;;;5025383;28;20569;-60
2022/12/02 05:58:00;;;;;;;13.37;7.83;;;2.70;99.90;;;;;;5022254;28;20433;-59
2022/12/02 06:00:26;;;;;;;13.53;7.90;;;2.70;99.90;;;;;;5030865;28;20519;-59
2022/12/02 06:02:58;;;;;;;12.43;7.40;;;2.70;99.90;;;;;;5023870;28;20425;-58
2022/12/02 06:05:30;;;;;;;13.43;7.90;;;2.70;99.90;;;;;;5027651;28;20278;-55
2022/12/02 06:08:00;;;;;;;15.30;7.50;;;2.70;99.90;;;;;;5020929;28;20454;-59
2022/12/02 06:10:31;;;;;;;16.17;9.17;;;2.70;99.90;;;;;;5020601;28;20461;-59
2022/12/02 06:13:09;;;;;;;14.70;8.27;;;2.70;99.90;;;;;;5028893;28;20528;-59
2022/12/02 06:15:38;;;;;;;19.03;9.20;;;2.70;99.90;;;;;;5022876;28;20422;-58
2022/12/02 06:18:19;;;;;;;16.43;8.77;;;2.70;99.90;;;;;;5027528;28;20458;-58
2022/12/02 06:20:47;;;;;;;16.40;8.10;;;2.70;99.90;;;;;;5033153;28;20491;-59
2022/12/02 06:23:19;;;;;;;12.47;8.00;;;2.70;99.90;;;;;;5008474;28;20804;-59
2022/12/02 06:25:46;;;;;;;15.63;7.70;;;2.70;99.90;;;;;;5010060;28;20905;-59
2022/12/02 06:28:20;;;;;;;13.03;8.17;;;2.70;99.90;;;;;;5035726;28;20434;-59
2022/12/02 06:30:46;;;;;;;14.27;7.60;;;2.70;99.90;;;;;;5032486;28;20461;-58
2022/12/02 06:33:23;;;;;;;13.23;7.20;;;2.70;99.90;;;;;;5029547;28;20591;-59
2022/12/02 06:35:49;;;;;;;12.93;7.03;;;2.70;99.90;;;;;;5028405;28;20174;-58
2022/12/02 06:38:30;;;;;;;11.70;6.97;;;2.70;99.90;;;;;;5022724;28;20458;-59
2022/12/02 06:40:59;;;;;;;11.57;6.63;;;2.70;99.90;;;;;;5026063;28;21022;-58
2022/12/02 06:43:28;;;;;;;14.47;7.77;;;2.60;99.90;;;;;;5030630;28;20438;-58
2022/12/02 06:45:54;;;;;;;12.73;6.50;;;2.70;99.90;;;;;;5029186;28;20985;-59
2022/12/02 06:48:31;;;;;;;11.63;7.00;;;2.70;99.90;;;;;;5011797;28;20438;-58
2022/12/02 06:51:11;;;;;;;13.53;7.20;;;2.70;99.90;;;;;;5027271;28;20209;-59
2022/12/02 06:53:40;;;;;;;13.33;7.43;;;2.70;99.90;;;;;;5027263;28;20437;-58
2022/12/02 06:56:28;;;;;;;15.10;7.07;;;2.70;99.90;;;;;;5024288;28;20950;-59
2022/12/02 06:59:05;;;;;;;12.27;7.30;;;2.70;99.90;;;;;;5029960;28;20961;-58
2022/12/02 07:01:42;;;;;;;22.47;10.80;;;2.70;99.90;;;;;;5029152;28;20491;-59
2022/12/02 07:04:07;;;;;;;27.23;12.93;;;2.70;99.90;;;;;;5024363;28;20805;-58
2022/12/02 07:06:36;;;;;;;28.10;13.30;;;2.70;99.90;;;;;;5025881;28;20426;-58
2022/12/02 07:09:15;;;;;;;29.10;13.87;;;2.70;99.90;;;;;;5023902;28;20183;-58
2022/12/02 07:11:50;;;;;;;65.03;24.73;;;2.70;99.90;;;;;;5029117;28;20533;-58
2022/12/02 07:14:18;;;;;;;32.70;15.10;;;2.70;99.90;;;;;;5031550;28;21000;-59
2022/12/02 07:16:44;;;;;;;28.43;13.80;;;2.70;99.90;;;;;;5026930;28;20444;-58
2022/12/02 07:19:18;;;;;;;24.30;12.50;;;2.70;99.90;;;;;;5027774;28;20449;-58
2022/12/02 07:21:44;;;;;;;23.60;9.87;;;2.70;99.90;;;;;;5027757;28;20442;-58
2022/12/02 07:24:14;;;;;;;18.07;9.20;;;2.70;99.90;;;;;;5029406;28;20431;-58
2022/12/02 07:26:40;;;;;;;14.10;7.27;;;2.70;99.90;;;;;;5025357;28;20910;-58
2022/12/02 07:29:12;;;;;;;13.27;7.50;;;2.70;99.90;;;;;;5026904;28;20437;-58
2022/12/02 07:31:37;;;;;;;12.73;7.30;;;2.70;99.90;;;;;;5026761;28;20475;-58
2022/12/02 07:34:03;;;;;;;19.63;7.40;;;2.70;99.90;;;;;;5026742;28;20434;-59
2022/12/02 07:36:28;;;;;;;18.17;8.10;;;2.70;99.90;;;;;;5010928;28;20179;-58
2022/12/02 07:38:54;;;;;;;15.87;8.90;;;2.70;99.90;;;;;;5029168;28;20168;-58
2022/12/02 07:41:20;;;;;;;27.23;11.53;;;2.60;99.90;;;;;;5023828;28;20184;-58
2022/12/02 07:43:45;;;;;;;45.40;18.30;;;2.60;99.90;;;;;;5019095;28;20252;-59
2022/12/02 07:46:11;;;;;;;25.90;11.00;;;2.70;99.90;;;;;;5025423;28;20644;-58
2022/12/02 07:48:36;;;;;;;18.60;9.77;;;2.70;99.90;;;;;;5026169;28;20175;-58
2022/12/02 07:51:02;;;;;;;22.10;10.50;;;2.70;99.90;;;;;;5023968;28;20191;-58
2022/12/02 07:53:28;;;;;;;21.67;10.00;;;2.70;99.90;;;;;;5027223;28;20864;-58
2022/12/02 07:55:53;;;;;;;15.03;8.00;;;2.70;99.90;;;;;;5025434;28;20168;-58
2022/12/02 07:58:19;;;;;;;14.93;8.13;;;2.70;99.90;;;;;;5026770;28;20191;-58
2022/12/02 08:00:44;;;;;;;18.13;7.73;;;2.70;99.90;;;;;;5027679;28;20192;-58
2022/12/02 08:03:10;;;;;;;13.73;7.37;;;2.70;99.90;;;;;;5025881;28;20619;-58
2022/12/02 08:05:36;;;;;;;11.97;6.40;;;2.80;99.90;;;;;;5025783;28;20600;-58
2022/12/02 08:08:02;;;;;;;11.50;7.13;;;2.80;99.90;;;;;;5016628;28;20194;-58
2022/12/02 08:10:28;;;;;;;10.53;6.67;;;2.80;99.90;;;;;;5025835;28;20557;-58
2022/12/02 08:12:53;;;;;;;17.20;7.87;;;2.80;99.90;;;;;;5029561;28;20233;-58
2022/12/02 08:15:19;;;;;;;11.97;7.00;;;2.80;99.90;;;;;;5025628;28;20603;-58
2022/12/02 08:17:44;;;;;;;12.97;7.47;;;2.90;99.90;;;;;;5026581;28;21007;-58
2022/12/02 08:20:11;;;;;;;11.60;6.77;;;2.90;99.90;;;;;;5027734;28;20219;-58
2022/12/02 08:22:37;;;;;;;12.03;6.20;;;2.90;99.90;;;;;;5023825;28;20179;-58
2022/12/02 08:25:03;;;;;;;9.53;5.80;;;2.90;99.90;;;;;;5021604;28;20882;-58
2022/12/02 08:27:29;;;;;;;9.67;6.07;;;2.90;99.90;;;;;;5027686;28;20176;-59
2022/12/02 08:29:55;;;;;;;11.07;6.47;;;2.90;99.90;;;;;;5018512;28;20516;-58
2022/12/02 08:32:20;;;;;;;9.70;5.27;;;2.90;99.90;;;;;;5021418;28;20275;-60
2022/12/02 08:34:46;;;;;;;9.87;5.83;;;2.90;99.90;;;;;;5018524;28;20680;-59
2022/12/02 08:37:13;;;;;;;11.80;6.20;;;2.90;99.90;;;;;;5025103;28;20176;-59
2022/12/02 08:39:39;;;;;;;9.30;5.90;;;2.90;99.90;;;;;;5025221;28;20188;-59
2022/12/02 08:42:05;;;;;;;10.77;6.00;;;2.90;99.90;;;;;;5022199;28;20438;-58
2022/12/02 08:44:31;;;;;;;10.63;5.97;;;2.90;99.90;;;;;;5027058;28;20438;-58
2022/12/02 08:46:57;;;;;;;31.20;13.10;;;2.90;99.90;;;;;;5022150;28;20437;-58
2022/12/02 08:49:23;;;;;;;26.37;12.60;;;2.90;99.90;;;;;;5024307;28;20461;-58
2022/12/02 08:51:49;;;;;;;25.67;11.00;;;2.90;99.90;;;;;;5025215;28;20227;-58
2022/12/02 08:54:15;;;;;;;15.53;7.87;;;2.90;99.90;;;;;;5025504;28;20465;-57
2022/12/02 08:56:42;;;;;;;23.53;9.50;;;3.00;99.90;;;;;;5024099;28;20168;-58
2022/12/02 08:59:08;;;;;;;7.13;4.83;;;3.00;99.90;;;;;;5021054;28;20205;-58
2022/12/02 09:01:34;;;;;;;9.80;5.43;;;3.00;99.90;;;;;;5027597;28;20438;-58
2022/12/02 09:04:00;;;;;;;10.27;6.20;;;3.00;99.90;;;;;;5015987;28;20948;-58
2022/12/02 09:06:25;;;;;;;8.37;6.13;;;3.00;99.90;;;;;;5025264;28;20196;-58
2022/12/02 09:08:51;;;;;;;8.93;5.97;;;3.00;99.90;;;;;;5028991;28;20677;-58
2022/12/02 09:11:17;;;;;;;6.90;5.40;;;3.00;99.90;;;;;;5029133;28;20298;-58
2022/12/02 09:13:43;;;;;;;9.20;6.03;;;3.00;99.90;;;;;;5022652;28;20181;-59
2022/12/02 09:16:08;;;;;;;6.23;4.57;;;3.00;99.90;;;;;;5003440;28;20437;-58
2022/12/02 09:18:34;;;;;;;7.63;4.87;;;3.00;99.90;;;;;;5027830;28;20187;-58
2022/12/02 09:21:00;;;;;;;9.00;5.23;;;3.00;99.90;;;;;;5034332;28;20214;-58
2022/12/02 09:23:27;;;;;;;8.33;5.60;;;3.10;99.90;;;;;;5033942;28;20188;-59
2022/12/02 09:25:53;;;;;;;8.93;6.10;;;3.10;99.90;;;;;;5025165;28;20183;-58
2022/12/02 09:28:20;;;;;;;7.40;5.87;;;3.10;99.90;;;;;;5012069;28;20807;-58
2022/12/02 09:30:47;;;;;;;17.47;10.17;;;3.10;99.90;;;;;;5011982;28;20647;-58
2022/12/02 09:33:12;;;;;;;8.10;5.70;;;3.20;99.90;;;;;;5025437;28;20447;-54
2022/12/02 09:35:38;;;;;;;8.20;6.23;;;3.20;99.90;;;;;;5024357;28;20804;-57
2022/12/02 09:38:03;;;;;;;11.30;6.60;;;3.20;99.90;;;;;;5022585;28;20188;-57
2022/12/02 09:40:31;;;;;;;11.17;6.30;;;3.30;99.90;;;;;;5022800;28;20744;-58
2022/12/02 09:42:57;;;;;;;10.27;6.43;;;3.30;99.90;;;;;;5031085;28;20176;-58
2022/12/02 09:45:22;;;;;;;7.80;5.33;;;3.30;99.90;;;;;;5041790;22;20567;-59
2022/12/02 09:47:48;;;;;;;11.63;6.07;;;3.40;99.90;;;;;;4986572;28;20217;-58
2022/12/02 09:50:16;;;;;;;11.70;6.70;;;3.40;99.90;;;;;;5009139;28;20200;-58
2022/12/02 09:52:42;;;;;;;10.00;6.27;;;3.40;99.90;;;;;;5009125;28;20176;-58
2022/12/02 09:55:19;;;;;;;10.60;6.50;;;3.40;99.90;;;;;;5011312;28;20453;-64
2022/12/02 09:57:45;;;;;;;9.03;5.77;;;3.40;99.90;;;;;;4999057;28;20435;-57
2022/12/02 10:00:19;;;;;;;9.53;6.10;;;3.40;99.90;;;;;;5004235;28;20474;-56
2022/12/02 10:02:54;;;;;;;9.13;6.17;;;3.40;99.90;;;;;;5012654;28;20427;-58
2022/12/02 10:05:25;;;;;;;9.73;6.30;;;3.40;99.90;;;;;;5001673;28;20462;-56
2022/12/02 10:07:52;;;;;;;10.80;6.97;;;3.40;99.90;;;;;;5002344;28;20821;-60
2022/12/02 10:10:23;;;;;;;14.20;7.73;;;3.40;99.90;;;;;;5001530;28;20549;-55
2022/12/02 10:12:49;;;;;;;10.77;6.63;;;3.40;99.90;;;;;;5010188;28;20429;-56
2022/12/02 10:15:28;;;;;;;12.00;7.10;;;3.40;99.90;;;;;;5006545;28;20470;-56
2022/12/02 10:17:54;;;;;;;11.43;6.70;;;3.40;99.90;;;;;;4999421;28;20428;-59
2022/12/02 10:20:27;;;;;;;13.47;6.13;;;3.50;99.90;;;;;;4991421;28;20447;-63
2022/12/02 10:23:13;;;;;;;11.30;6.20;;;3.50;99.90;;;;;;4988566;28;20521;-57
2022/12/02 10:25:42;;;;;;;8.97;5.77;;;3.50;99.90;;;;;;5002165;28;20458;-57
2022/12/02 10:28:37;;;;;;;8.47;5.90;;;3.50;99.90;;;;;;5007680;28;20429;-58
2022/12/02 10:31:11;;;;;;;13.27;6.50;;;3.60;99.90;;;;;;4985632;28;20476;-57
2022/12/02 10:33:51;;;;;;;9.23;5.43;;;3.60;99.90;;;;;;5009558;28;20468;-58
2022/12/02 10:36:53;;;;;;;8.27;5.90;;;3.60;99.90;;;;;;4999483;28;20457;-56
2022/12/02 10:39:26;;;;;;;7.93;5.83;;;3.60;99.90;;;;;;4936601;29;20857;-60
2022/12/02 10:42:03;;;;;;;9.07;6.33;;;3.60;99.90;;;;;;4988770;28;20452;-59
2022/12/02 10:45:10;;;;;;;7.07;5.30;;;3.60;99.90;;;;;;5000324;28;20443;-57
2022/12/02 10:47:35;;;;;;;8.07;5.77;;;3.60;99.90;;;;;;5003283;28;20435;-58
2022/12/02 10:50:15;;;;;;;9.70;5.80;;;3.70;99.90;;;;;;5006177;28;20449;-57
2022/12/02 10:52:48;;;;;;;9.07;6.20;;;3.70;99.90;;;;;;4998116;28;20180;-56
2022/12/02 10:55:16;;;;;;;9.47;6.53;;;3.70;99.90;;;;;;5000546;28;20456;-57
2022/12/02 10:57:43;;;;;;;9.40;6.03;;;3.70;99.90;;;;;;4998493;28;20432;-58
2022/12/02 11:00:16;;;;;;;8.70;5.83;;;3.70;99.90;;;;;;5002951;28;20459;-59
2022/12/02 11:02:46;;;;;;;10.07;5.40;;;3.70;99.90;;;;;;5002366;28;20434;-57
2022/12/02 11:05:23;;;;;;;7.30;4.63;;;3.70;99.90;;;;;;5012057;28;20452;-62
2022/12/02 11:08:06;;;;;;;8.43;5.47;;;3.70;99.90;;;;;;5001667;28;20443;-57
2022/12/02 11:10:40;;;;;;;7.17;4.73;;;3.70;99.90;;;;;;5007636;28;20459;-58
2022/12/02 11:13:12;;;;;;;6.00;4.57;;;3.70;99.90;;;;;;5000496;28;20440;-57
2022/12/02 11:15:47;;;;;;;9.93;6.53;;;3.70;99.90;;;;;;4999777;28;20460;-56
2022/12/02 11:18:22;;;;;;;15.97;9.50;;;3.70;99.90;;;;;;5003996;28;20439;-58
2022/12/02 11:20:51;;;;;;;12.70;8.60;;;3.70;99.90;;;;;;4993514;28;20642;-58
2022/12/02 11:23:28;;;;;;;9.53;6.47;;;3.70;99.90;;;;;;4988944;28;20835;-56
2022/12/02 11:25:59;;;;;;;9.97;7.07;;;3.70;99.90;;;;;;5008420;28;20452;-56
2022/12/02 11:28:28;;;;;;;9.03;6.40;;;3.80;99.90;;;;;;5009121;28;20436;-56
2022/12/02 11:31:14;;;;;;;8.77;5.30;;;3.70;99.90;;;;;;5004676;28;20488;-55
2022/12/02 11:33:43;;;;;;;13.63;7.10;;;3.80;99.90;;;;;;4999288;28;21216;-58
2022/12/02 11:36:11;;;;;;;9.37;6.43;;;3.80;99.90;;;;;;5003061;28;20479;-57
2022/12/02 11:38:55;;;;;;;9.37;6.27;;;3.80;99.90;;;;;;4995808;28;20444;-60
2022/12/02 11:41:26;;;;;;;8.50;5.43;;;3.80;99.90;;;;;;4995011;28;20442;-59
2022/12/02 11:44:26;;;;;;;9.50;5.63;;;3.80;99.90;;;;;;4996144;28;20437;-55
2022/12/02 11:46:54;;;;;;;7.83;5.37;;;3.80;99.90;;;;;;4997192;28;20440;-54
2022/12/02 11:49:31;;;;;;;10.13;6.30;;;3.80;99.90;;;;;;4998139;28;20444;-55
2022/12/02 11:52:05;;;;;;;9.33;5.90;;;3.80;99.90;;;;;;4998135;28;21035;-51
2022/12/02 11:54:34;;;;;;;10.37;6.73;;;3.90;99.90;;;;;;4994392;28;20519;-66
2022/12/02 11:57:00;;;;;;;12.10;5.97;;;3.90;99.90;;;;;;4995999;28;20837;-57
2022/12/02 11:59:28;;;;;;;8.57;5.90;;;3.80;99.90;;;;;;4997940;28;20437;-56
2022/12/02 12:02:13;;;;;;;10.43;5.83;;;3.80;99.90;;;;;;4984068;28;20184;-53
2022/12/02 12:04:40;;;;;;;8.07;5.93;;;3.80;99.90;;;;;;4994641;28;20459;-54
2022/12/02 12:07:06;;;;;;;8.90;6.57;;;3.70;99.90;;;;;;4989937;28;22409;-56
2022/12/02 12:09:32;;;;;;;8.40;5.67;;;3.70;99.90;;;;;;4986169;28;20465;-55
2022/12/02 12:12:18;;;;;;;7.27;5.13;;;3.70;99.90;;;;;;4994217;28;20892;-55
2022/12/02 12:15:02;;;;;;;7.33;5.60;;;3.70;99.90;;;;;;4994147;28;20451;-52
2022/12/02 12:17:37;;;;;;;8.90;5.97;;;3.70;99.90;;;;;;4991580;28;20530;-55
2022/12/02 12:20:03;;;;;;;7.87;5.00;;;3.70;99.90;;;;;;4995927;28;20432;-60
2022/12/02 12:22:30;;;;;;;7.93;5.30;;;3.70;99.90;;;;;;4997045;28;20437;-56
2022/12/02 12:25:33;;;;;;;7.23;4.33;;;3.70;99.90;;;;;;4990777;28;20491;-55
2022/12/02 12:27:59;;;;;;;6.63;4.47;;;3.70;99.90;;;;;;4990401;28;20447;-57
2022/12/02 12:30:25;;;;;;;6.20;4.33;;;3.70;99.90;;;;;;4993900;28;21122;-56
2022/12/02 12:32:51;;;;;;;7.53;4.60;;;3.70;99.90;;;;;;4994371;28;20522;-57
2022/12/02 12:35:17;;;;;;;6.67;4.30;;;3.70;99.90;;;;;;4980226;28;20626;-54
2022/12/02 12:37:43;;;;;;;7.60;5.00;;;3.70;99.90;;;;;;4996376;28;20980;-63
2022/12/02 12:40:10;;;;;;;5.77;4.60;;;3.80;99.90;;;;;;4994200;28;20195;-59
2022/12/02 12:42:36;;;;;;;5.43;4.40;;;3.80;99.90;;;;;;4996367;28;20186;-56
2022/12/02 12:45:02;;;;;;;7.97;5.30;;;3.80;99.90;;;;;;4991547;28;20475;-51
2022/12/02 12:47:28;;;;;;;7.20;5.77;;;3.80;99.90;;;;;;4994495;28;20180;-58
2022/12/02 12:49:53;;;;;;;9.43;5.03;;;3.70;99.90;;;;;;4985308;28;20429;-58
2022/12/02 12:52:19;;;;;;;9.07;5.70;;;3.70;99.90;;;;;;4987181;28;20205;-58
2022/12/02 12:54:49;;;;;;;9.20;5.43;;;3.70;99.90;;;;;;4989557;28;20197;-57
2022/12/02 12:57:15;;;;;;;11.43;6.63;;;3.60;99.90;;;;;;4990028;28;20178;-60